Time;durP1;ratioP1;P1;durP2;ratioP2;P2;SDS_P1;SDS_P2;PMS_P1;PMS_P2;Temp;Humidity;BMP_temperature;BMP_pressure;BME280_temperature;BME280_humidity;BME280_pressure;Samples;Min_cycle;Max_cycle;Signal;HPM_P1;HPM_P2
2021/10/28 00:19:03;;;;;;;1999.90;999.90;;;;;;;12.92;73.27;101859.81;15677674;28;20124;-61
2021/10/28 00:26:39;;;;;;;1999.90;999.90;;;;;;;12.90;73.27;101869.66;15734454;28;20098;-59
2021/10/28 00:34:13;;;;;;;1999.90;999.90;;;;;;;12.64;73.84;101870.31;15737692;28;20086;-59
2021/10/28 00:41:48;;;;;;;1999.90;999.90;;;;;;;12.59;73.82;101870.44;15738322;28;20044;-60
2021/10/28 00:49:21;;;;;;;1999.90;999.90;;;;;;;12.31;74.16;101868.94;15738598;28;20111;-58
2021/10/28 00:56:55;;;;;;;1999.90;999.90;;;;;;;12.47;74.05;101866.56;15712576;28;20045;-61
2021/10/28 01:04:28;;;;;;;1999.90;999.90;;;;;;;12.25;74.33;101857.03;15676939;28;20121;-62
2021/10/28 01:12:02;;;;;;;1999.90;999.90;;;;;;;12.08;74.76;101854.91;15678994;28;20420;-61
2021/10/28 01:19:35;;;;;;;1999.90;999.90;;;;;;;12.04;74.99;101847.47;15687373;28;20045;-61
2021/10/28 01:27:09;;;;;;;1999.90;999.90;;;;;;;11.94;75.34;101856.91;15687468;28;20057;-59
2021/10/28 01:34:43;;;;;;;1999.90;999.90;;;;;;;11.92;75.11;101858.38;15686428;28;20056;-61
2021/10/28 01:42:16;;;;;;;1999.90;999.90;;;;;;;11.71;74.96;101855.19;15685072;28;20044;-61
2021/10/28 01:49:49;;;;;;;1999.90;999.90;;;;;;;11.57;75.14;101849.63;15687215;28;20070;-62
2021/10/28 01:57:24;;;;;;;1999.90;999.90;;;;;;;11.46;75.65;101851.78;15714471;28;20787;-61
2021/10/28 02:04:56;;;;;;;1999.90;999.90;;;;;;;11.43;74.89;101858.00;15746582;28;20044;-61
2021/10/28 02:12:32;;;;;;;1999.90;999.90;;;;;;;11.18;73.86;101850.97;15745880;28;20559;-62
2021/10/28 02:20:07;;;;;;;1999.90;999.90;;;;;;;10.96;73.58;101851.66;15745685;28;20071;-62
2021/10/28 02:27:41;;;;;;;1999.90;999.90;;;;;;;10.77;74.66;101848.13;15745144;28;20048;-62
2021/10/28 02:35:15;;;;;;;1999.90;999.90;;;;;;;10.62;77.43;101848.38;15744288;28;20124;-62
2021/10/28 02:42:49;;;;;;;1999.90;999.90;;;;;;;10.56;79.47;101844.03;15742930;28;20120;-61
2021/10/28 02:50:23;;;;;;;1999.90;999.90;;;;;;;10.70;78.27;101853.25;15744065;28;20070;-59
2021/10/28 02:57:57;;;;;;;1999.90;999.90;;;;;;;10.88;77.70;101835.63;15710460;28;20037;-61
2021/10/28 03:05:29;;;;;;;1999.90;999.90;;;;;;;10.98;77.24;101840.19;15680580;28;20049;-63
2021/10/28 03:13:04;;;;;;;1999.90;999.90;;;;;;;10.98;76.42;101834.59;15695440;28;20056;-62
2021/10/28 03:28:28;;;;;;;1999.90;999.90;;;;;;;10.83;76.42;101835.69;15679539;28;20492;-59
2021/10/28 03:36:02;;;;;;;1999.90;999.90;;;;;;;10.70;76.58;101839.31;15677745;28;20049;-58
2021/10/28 04:30:38;;;;;;;1999.90;999.90;;;;;;;10.26;76.21;101823.88;15739565;28;20119;-61
2021/10/28 04:38:11;;;;;;;1999.90;999.90;;;;;;;10.03;76.72;101835.94;15739264;28;20037;-60
2021/10/28 04:45:45;;;;;;;1999.90;999.90;;;;;;;10.07;76.57;101828.63;15738859;28;20143;-62
2021/10/28 04:53:18;;;;;;;1999.90;999.90;;;;;;;10.03;76.41;101833.16;15750302;28;20036;-61
2021/10/28 05:00:52;;;;;;;1999.90;999.90;;;;;;;9.83;78.76;101829.53;15691922;28;20045;-61
2021/10/28 05:08:25;;;;;;;1999.90;999.90;;;;;;;9.88;78.87;101823.03;15688046;28;20049;-62
2021/10/28 05:15:59;;;;;;;1999.90;999.90;;;;;;;10.00;77.52;101815.03;15684491;28;20053;-62
2021/10/28 05:23:32;;;;;;;1999.90;999.90;;;;;;;10.02;77.26;101821.16;15684739;28;20069;-61
2021/10/28 05:31:06;;;;;;;1999.90;999.90;;;;;;;9.90;77.48;101825.53;15685392;28;20563;-63
2021/10/28 05:38:38;;;;;;;1999.90;999.90;;;;;;;9.45;79.87;101823.09;15686548;28;20041;-61
2021/10/28 05:46:12;;;;;;;1999.90;999.90;;;;;;;9.55;79.83;101825.72;15686952;28;20057;-60
2021/10/28 05:53:46;;;;;;;1999.90;999.90;;;;;;;9.34;81.01;101832.69;15711078;28;20050;-62
2021/10/28 06:01:20;;;;;;;1999.90;999.90;;;;;;;9.51;80.47;101827.47;15728518;28;20044;-61
2021/10/28 06:08:53;;;;;;;1999.90;999.90;;;;;;;9.55;79.43;101827.69;15700048;28;20045;-60
2021/10/28 06:16:28;;;;;;;1999.90;999.90;;;;;;;9.53;79.44;101830.78;15717236;28;20032;-63
2021/10/28 06:24:01;;;;;;;1999.90;999.90;;;;;;;9.58;79.72;101827.09;15686856;28;20075;-61
2021/10/28 06:31:34;;;;;;;1999.90;999.90;;;;;;;9.87;78.71;101826.13;15692057;28;20466;-60
2021/10/28 06:39:07;;;;;;;1999.90;999.90;;;;;;;9.89;78.16;101835.03;15683656;28;20053;-62
2021/10/28 06:46:41;;;;;;;1999.90;999.90;;;;;;;10.20;76.67;101832.59;15683089;28;20049;-61
2021/10/28 06:54:22;;;;;;;1999.90;999.90;;;;;;;9.98;78.63;101847.97;15685992;28;20079;-62
2021/10/28 07:09:56;;;;;;;1999.90;999.90;;;;;;;10.95;75.03;101821.25;15783280;28;20048;-61
2021/10/28 07:17:33;;;;;;;1999.90;999.90;;;;;;;11.91;71.85;101829.59;15770587;28;20302;-60
2021/10/28 07:25:30;;;;;;;1999.90;999.90;;;;;;;12.32;70.65;101831.41;15762414;28;20503;-60
2021/10/28 07:33:34;;;;;;;1999.90;999.90;;;;;;;12.00;72.74;101819.31;15725397;28;20098;-60
2021/10/28 08:05:04;;;;;;;1999.90;999.90;;;;;;;13.99;66.48;101808.16;15679065;28;20566;-59
2021/10/28 08:36:11;;;;;;;1999.90;999.90;;;;;;;15.98;59.95;101804.63;15677654;28;20045;-60
2021/10/28 08:43:46;;;;;;;1999.90;999.90;;;;;;;16.00;60.23;101793.84;15692304;28;20037;-61
2021/10/28 08:51:25;;;;;;;1999.90;999.90;;;;;;;17.64;57.38;101782.66;15678293;28;20636;-62
2021/10/28 08:59:30;;;;;;;1999.90;999.90;;;;;;;17.35;56.00;101787.38;15721926;28;20606;-61
2021/10/28 09:32:05;;;;;;;1999.90;999.90;;;;;;;19.55;49.97;101761.72;15738928;28;20048;-62
2021/10/28 09:47:50;;;;;;;1999.90;999.90;;;;;;;18.80;54.34;101763.84;15749060;28;20041;-62
2021/10/28 10:03:49;;;;;;;1999.90;999.90;;;;;;;20.26;50.35;101758.78;15685787;28;20007;-62
2021/10/28 10:11:26;;;;;;;1999.90;999.90;;;;;;;20.64;50.36;101766.44;15684867;28;20041;-62
2021/10/28 10:19:31;;;;;;;1999.90;999.90;;;;;;;20.97;48.61;101754.47;15685227;28;20182;-63
2021/10/28 11:25:35;;;;;;;1999.90;999.90;;;;;;;25.16;38.23;101690.00;15744085;28;20043;-64
2021/10/28 12:28:11;;;;;;;1999.90;999.90;;;;;;;31.10;26.94;101634.97;15679031;28;20044;-63
2021/10/28 12:43:52;;;;;;;;;;;;;;;31.19;27.04;101611.28;15677420;28;20454;-63
2021/10/28 12:51:39;;;;;;;1999.90;999.90;;;;;;;33.05;23.98;101609.13;15678308;28;20363;-63
2021/10/28 13:07:42;;;;;;;1999.90;999.90;;;;;;;28.99;29.29;101581.47;15740508;28;20390;-63
2021/10/28 15:28:58;;;;;;;1999.90;999.90;;;;;;;17.38;56.08;101411.47;15706375;28;20421;-62
2021/10/28 15:36:37;;;;;;;1999.90;999.90;;;;;;;17.64;55.49;101410.13;15743369;28;20052;-62
2021/10/28 16:00:12;;;;;;;1999.90;999.90;;;;;;;16.32;59.31;101389.50;15725535;28;20048;-62
2021/10/28 16:23:27;;;;;;;1999.90;999.90;;;;;;;16.00;59.75;101383.69;15615710;28;20095;-61
2021/10/28 16:31:01;;;;;;;1999.90;999.90;;;;;;;15.82;60.36;101371.03;15615657;28;20052;-60
2021/10/28 16:38:33;;;;;;;1999.90;999.90;;;;;;;15.44;61.17;101354.50;15614680;28;20048;-59
2021/10/28 16:46:09;;;;;;;1999.90;999.90;;;;;;;15.51;60.97;101358.34;15623004;28;20075;-58
2021/10/28 16:53:42;;;;;;;1999.90;999.90;;;;;;;15.14;62.00;101351.06;15628181;28;20053;-61
2021/10/28 17:01:16;;;;;;;1999.90;999.90;;;;;;;15.21;61.91;101352.09;15647762;28;20559;-60
2021/10/28 17:08:54;;;;;;;1999.90;999.90;;;;;;;15.18;61.76;101349.19;15750290;28;20378;-59
2021/10/28 17:16:29;;;;;;;1999.90;999.90;;;;;;;14.86;62.95;101362.91;15751168;28;20123;-61
2021/10/28 17:24:04;;;;;;;1999.90;999.90;;;;;;;15.04;61.66;101362.75;15750980;28;20045;-60
2021/10/28 17:31:38;;;;;;;1999.90;999.90;;;;;;;14.34;63.42;101354.97;15749701;28;20108;-61
2021/10/28 17:39:10;;;;;;;1999.90;999.90;;;;;;;14.50;61.41;101362.78;15749292;28;20055;-59
2021/10/28 17:46:44;;;;;;;1999.90;999.90;;;;;;;14.68;58.75;101373.50;15749336;28;20043;-60
2021/10/28 17:54:16;;;;;;;1999.90;999.90;;;;;;;15.01;56.78;101362.28;15747618;28;20029;-61
2021/10/28 18:01:50;;;;;;;1999.90;999.90;;;;;;;15.14;56.27;101351.88;15747018;28;20493;-60
2021/10/28 18:09:24;;;;;;;1999.90;999.90;;;;;;;14.99;56.57;101346.91;15735053;28;20066;-60
2021/10/28 18:16:58;;;;;;;1999.90;999.90;;;;;;;14.54;57.28;101355.31;15674299;28;20096;-61
2021/10/28 18:24:31;;;;;;;1999.90;999.90;;;;;;;14.61;57.30;101338.75;15667641;28;20506;-61
2021/10/28 18:32:07;;;;;;;1999.90;999.90;;;;;;;14.34;58.13;101329.69;15673446;28;20048;-61
2021/10/28 18:39:40;;;;;;;1999.90;999.90;;;;;;;14.27;58.27;101335.03;15683665;28;20076;-61
2021/10/28 18:47:15;;;;;;;1999.90;999.90;;;;;;;14.43;58.15;101316.41;15683764;28;20037;-62
2021/10/28 18:54:50;;;;;;;1999.90;999.90;;;;;;;14.32;58.31;101314.34;15664730;28;20045;-62
2021/10/28 19:02:27;;;;;;;1999.90;999.90;;;;;;;14.14;59.03;101292.03;15680196;28;20053;-62
2021/10/28 19:09:59;;;;;;;1999.90;999.90;;;;;;;13.64;60.42;101292.09;15680596;28;20053;-59
2021/10/28 19:17:34;;;;;;;1999.90;999.90;;;;;;;13.39;60.99;101287.47;15674889;28;20041;-59
2021/10/28 19:25:07;;;;;;;1999.90;999.90;;;;;;;12.71;63.32;101279.84;15680209;28;20041;-60
2021/10/28 19:32:41;;;;;;;1999.90;999.90;;;;;;;12.52;64.07;101276.59;15680165;28;20048;-59
2021/10/28 19:48:09;;;;;;;1999.90;999.90;;;;;;;12.66;63.42;101266.00;15661877;28;20413;-60
2021/10/28 19:55:43;;;;;;;1999.90;999.90;;;;;;;12.57;63.62;101255.97;15677601;28;20048;-60
2021/10/28 20:26:48;;;;;;;1999.90;999.90;;;;;;;12.63;62.89;101238.69;15678729;28;20124;-62
2021/10/28 20:34:29;;;;;;;1999.90;999.90;;;;;;;12.60;62.71;101239.31;15675488;28;20044;-61
2021/10/28 20:42:01;;;;;;;1999.90;999.90;;;;;;;12.80;62.48;101228.53;15679496;28;20072;-58
2021/10/28 20:49:35;;;;;;;1999.90;999.90;;;;;;;12.35;63.68;101224.25;15677655;28;20510;-62
2021/10/28 20:57:08;;;;;;;1999.90;999.90;;;;;;;12.30;64.10;101220.81;15673481;28;20071;-61
2021/10/28 21:04:42;;;;;;;1999.90;999.90;;;;;;;12.30;64.32;101227.25;15677726;28;20041;-62
2021/10/28 21:12:14;;;;;;;1999.90;999.90;;;;;;;12.46;63.60;101221.91;15675134;28;20049;-59
2021/10/28 21:19:48;;;;;;;1999.90;999.90;;;;;;;11.91;65.05;101207.88;15657386;28;20053;-60
2021/10/28 21:27:21;;;;;;;1999.90;999.90;;;;;;;11.88;64.91;101203.78;15674836;28;20041;-59
2021/10/28 21:34:55;;;;;;;1999.90;999.90;;;;;;;11.77;65.73;101205.19;15684966;28;20064;-58
2021/10/28 21:42:27;;;;;;;1999.90;999.90;;;;;;;11.48;66.71;101206.69;15681834;28;20124;-61
2021/10/28 21:50:02;;;;;;;1999.90;999.90;;;;;;;11.63;66.25;101204.53;15683884;28;20076;-59
2021/10/28 21:57:44;;;;;;;1999.90;999.90;;;;;;;11.65;66.21;101199.44;15686562;28;20524;-59
2021/10/28 22:05:37;;;;;;;1999.90;999.90;;;;;;;11.64;66.27;101190.25;15730839;28;20059;-61
2021/10/28 22:28:51;;;;;;;1999.90;999.90;;;;;;;11.08;66.99;101168.81;15747605;28;20056;-61
2021/10/28 22:36:28;;;;;;;1999.90;999.90;;;;;;;10.16;70.06;101173.34;15744868;28;20489;-62
2021/10/28 22:44:01;;;;;;;1999.90;999.90;;;;;;;10.00;70.51;101172.91;15727276;28;20048;-61
2021/10/28 22:51:35;;;;;;;1999.90;999.90;;;;;;;9.50;72.69;101146.00;15745549;28;20049;-62
2021/10/28 22:59:09;;;;;;;1999.90;999.90;;;;;;;9.66;72.21;101146.44;15744411;28;20044;-62
2021/10/28 23:07:14;;;;;;;1999.90;999.90;;;;;;;10.11;70.85;101143.66;15650681;28;20045;-62
2021/10/28 23:15:00;;;;;;;1999.90;999.90;;;;;;;9.63;72.25;101135.13;15685300;28;20044;-61
2021/10/28 23:22:33;;;;;;;1999.90;999.90;;;;;;;9.99;71.45;101127.47;15707585;28;20078;-61
2021/10/28 23:30:07;;;;;;;1999.90;999.90;;;;;;;10.03;71.73;101122.94;15731972;28;20094;-62
2021/10/28 23:37:41;;;;;;;1999.90;999.90;;;;;;;10.36;70.25;101103.91;15662592;28;20536;-62
2021/10/28 23:45:13;;;;;;;1999.90;999.90;;;;;;;10.07;71.12;101104.41;15680926;28;20048;-60
2021/10/28 23:52:47;;;;;;;1999.90;999.90;;;;;;;9.89;71.88;101102.66;15738506;28;20517;-61
